createdAt,value
2023-05-07T00:00:52.007Z,90.38
2023-05-07T00:03:18.542Z,90.61
2023-05-07T00:05:44.885Z,90.69
2023-05-07T00:08:11.330Z,90.75
2023-05-07T00:10:37.917Z,90.67
2023-05-07T00:13:04.293Z,90.74
2023-05-07T00:15:30.691Z,90.91
2023-05-07T00:17:57.166Z,91.08
2023-05-07T00:20:23.532Z,91.21
2023-05-07T00:22:50.236Z,91.70
2023-05-07T00:25:16.630Z,92.17
2023-05-07T00:27:43.011Z,91.90
2023-05-07T00:30:09.743Z,91.53
2023-05-07T00:32:36.011Z,91.75
2023-05-07T00:35:02.401Z,92.06
2023-05-07T00:37:28.849Z,92.23
2023-05-07T00:39:55.577Z,92.36
2023-05-07T00:42:22.126Z,92.53
2023-05-07T00:44:48.614Z,92.63
2023-05-07T00:47:15.165Z,92.97
2023-05-07T00:49:41.619Z,93.03
2023-05-07T00:52:08.002Z,93.29
2023-05-07T00:54:34.359Z,93.26
2023-05-07T00:57:01.026Z,93.43
2023-05-07T00:59:27.562Z,93.52
2023-05-07T01:01:53.995Z,93.07
2023-05-07T01:04:20.513Z,92.99
2023-05-07T01:06:46.852Z,93.04
2023-05-07T01:09:13.362Z,93.00
2023-05-07T01:11:39.822Z,92.97
2023-05-07T01:14:06.314Z,92.88
2023-05-07T01:16:32.692Z,92.76
2023-05-07T01:18:59.095Z,92.38
2023-05-07T01:21:25.513Z,92.16
2023-05-07T01:23:51.958Z,92.07
2023-05-07T01:26:18.489Z,91.79
2023-05-07T01:28:44.832Z,91.52
2023-05-07T01:31:11.312Z,91.26
2023-05-07T01:33:37.775Z,91.42
2023-05-07T01:36:04.237Z,91.60
2023-05-07T01:38:30.769Z,91.68
2023-05-07T01:40:57.138Z,91.79
2023-05-07T01:43:23.529Z,91.92
2023-05-07T01:45:50.016Z,91.76
2023-05-07T01:48:16.515Z,91.58
2023-05-07T01:50:42.852Z,91.74
2023-05-07T01:53:09.370Z,91.62
2023-05-07T01:55:35.909Z,91.86
2023-05-07T01:58:02.317Z,91.78
2023-05-07T02:00:28.797Z,92.24
2023-05-07T02:02:55.246Z,92.59
2023-05-07T02:05:21.828Z,93.03
2023-05-07T02:07:48.213Z,93.37
2023-05-07T02:10:14.720Z,93.63
2023-05-07T02:12:41.109Z,93.94
2023-05-07T02:15:08.721Z,94.32
2023-05-07T02:17:35.167Z,94.46
2023-05-07T02:20:01.574Z,95.28
2023-05-07T02:22:27.961Z,95.72
2023-05-07T02:24:54.393Z,95.07
2023-05-07T02:27:20.849Z,94.94
2023-05-07T02:29:47.323Z,94.67
2023-05-07T02:32:13.794Z,94.38
2023-05-07T02:34:40.233Z,93.86
2023-05-07T02:37:06.866Z,94.02
2023-05-07T02:39:33.289Z,94.14
2023-05-07T02:41:59.677Z,94.18
2023-05-07T02:44:26.315Z,94.23
2023-05-07T02:46:52.713Z,94.62
2023-05-07T02:49:19.178Z,94.46
2023-05-07T02:51:45.724Z,95.70
2023-05-07T02:54:12.165Z,96.09
2023-05-07T02:56:38.570Z,96.06
2023-05-07T02:59:05.018Z,96.43
2023-05-07T03:01:31.523Z,96.45
2023-05-07T03:03:57.989Z,96.51
2023-05-07T03:06:24.362Z,96.43
2023-05-07T03:08:50.790Z,96.80
2023-05-07T03:11:17.314Z,96.88
2023-05-07T03:13:43.726Z,97.17
2023-05-07T03:16:10.220Z,97.19
2023-05-07T03:18:36.762Z,97.79
2023-05-07T03:21:03.208Z,97.79
2023-05-07T03:23:29.694Z,97.85
2023-05-07T03:25:56.112Z,97.94
2023-05-07T03:28:22.671Z,97.99
2023-05-07T03:30:49.120Z,97.44
2023-05-07T03:33:15.554Z,96.86
2023-05-07T03:35:42.002Z,97.03
2023-05-07T03:38:08.432Z,98.09
2023-05-07T03:40:34.881Z,99.26
2023-05-07T03:43:01.450Z,99.20
2023-05-07T03:45:27.856Z,98.98
2023-05-07T03:47:54.336Z,98.67
2023-05-07T03:50:20.797Z,98.64
2023-05-07T03:52:47.170Z,98.22
2023-05-07T03:55:13.711Z,97.77
2023-05-07T03:57:40.143Z,97.13
2023-05-07T04:00:06.494Z,96.41
2023-05-07T04:02:33.228Z,95.69
2023-05-07T04:04:59.464Z,95.25
2023-05-07T04:07:26.008Z,95.16
2023-05-07T04:09:52.782Z,94.66
2023-05-07T04:12:19.169Z,94.16
2023-05-07T04:14:45.814Z,93.79
2023-05-07T04:17:12.204Z,93.66
2023-05-07T04:19:38.698Z,93.30
2023-05-07T04:22:05.133Z,92.58
2023-05-07T04:24:31.595Z,91.67
2023-05-07T04:26:58.001Z,91.09
2023-05-07T04:29:24.511Z,90.35
2023-05-07T04:31:50.979Z,90.13
2023-05-07T04:34:17.420Z,89.81
2023-05-07T04:36:43.889Z,89.37
2023-05-07T04:39:10.327Z,88.89
2023-05-07T04:41:36.782Z,88.45
2023-05-07T04:44:03.269Z,86.82
2023-05-07T04:46:29.712Z,85.26
2023-05-07T04:48:56.143Z,83.97
2023-05-07T04:51:22.640Z,82.48
2023-05-07T04:53:49.025Z,80.80
2023-05-07T04:56:15.466Z,79.04
2023-05-07T04:58:42.122Z,78.02
2023-05-07T05:01:08.846Z,76.45
2023-05-07T05:03:35.299Z,76.10
2023-05-07T05:06:01.670Z,74.96
2023-05-07T05:08:28.076Z,73.16
2023-05-07T05:10:54.612Z,71.09
2023-05-07T05:13:21.150Z,69.84
2023-05-07T05:15:47.465Z,67.25
2023-05-07T05:18:13.903Z,65.31
2023-05-07T05:20:40.422Z,64.91
2023-05-07T05:23:06.790Z,64.56
2023-05-07T05:25:33.277Z,62.17
2023-05-07T05:27:59.797Z,60.27
2023-05-07T05:30:26.294Z,57.70
2023-05-07T05:32:52.893Z,56.58
2023-05-07T05:35:19.349Z,55.35
2023-05-07T05:37:45.672Z,53.47
2023-05-07T05:40:14.179Z,51.92
2023-05-07T05:42:39.036Z,53.03
2023-05-07T05:45:05.748Z,52.90
2023-05-07T05:47:32.211Z,53.59
2023-05-07T05:49:58.650Z,54.27
2023-05-07T05:52:25.013Z,52.18
2023-05-07T05:54:51.435Z,51.96
2023-05-07T05:57:18.055Z,53.47
2023-05-07T05:59:44.712Z,54.74
2023-05-07T06:02:11.878Z,55.10
2023-05-07T06:04:38.421Z,53.80
2023-05-07T06:07:07.217Z,52.23
2023-05-07T06:09:35.777Z,50.74
2023-05-07T06:12:02.234Z,50.17
2023-05-07T06:14:28.654Z,49.39
2023-05-07T06:16:56.381Z,49.51
2023-05-07T06:19:23.944Z,49.98
2023-05-07T06:21:50.654Z,49.63
2023-05-07T06:24:17.581Z,48.84
2023-05-07T06:26:44.407Z,49.67
2023-05-07T06:29:11.289Z,49.63
2023-05-07T06:31:40.181Z,48.82
2023-05-07T06:34:06.875Z,49.35
2023-05-07T06:36:35.283Z,49.68
2023-05-07T06:38:59.746Z,50.88
2023-05-07T06:41:26.178Z,49.79
2023-05-07T06:44:02.556Z,50.41
2023-05-07T06:46:30.248Z,49.07
2023-05-07T06:48:56.816Z,50.61
2023-05-07T06:51:23.312Z,51.04
2023-05-07T06:53:49.961Z,51.17
2023-05-07T06:56:17.385Z,50.72
2023-05-07T06:58:43.718Z,49.46
2023-05-07T07:01:10.284Z,48.87
2023-05-07T07:03:36.671Z,49.07
2023-05-07T07:06:03.227Z,48.12
2023-05-07T07:08:29.611Z,47.28
2023-05-07T07:10:56.068Z,47.33
2023-05-07T07:13:22.856Z,47.50
2023-05-07T07:15:49.463Z,47.50
2023-05-07T07:18:16.008Z,47.43
2023-05-07T07:20:42.451Z,46.40
2023-05-07T07:23:09.130Z,45.42
2023-05-07T07:25:35.640Z,45.27
2023-05-07T07:28:02.089Z,46.06
2023-05-07T07:30:28.492Z,46.00
2023-05-07T07:32:55.140Z,46.07
2023-05-07T07:35:21.535Z,46.12
2023-05-07T07:37:47.946Z,46.22
2023-05-07T07:40:14.508Z,46.62
2023-05-07T07:42:40.827Z,45.68
2023-05-07T07:45:07.206Z,45.79
2023-05-07T07:47:33.636Z,46.55
2023-05-07T07:50:00.049Z,46.69
2023-05-07T07:52:26.417Z,45.50
2023-05-07T07:54:52.821Z,44.28
2023-05-07T07:57:19.278Z,43.94
2023-05-07T07:59:45.689Z,43.54
2023-05-07T08:02:12.127Z,43.61
2023-05-07T08:04:39.148Z,42.17
2023-05-07T08:07:05.308Z,42.16
2023-05-07T08:09:31.757Z,42.66
2023-05-07T08:11:58.147Z,42.35
2023-05-07T08:14:24.543Z,42.69
2023-05-07T08:16:51.012Z,42.11
2023-05-07T08:19:17.356Z,42.07
2023-05-07T08:21:43.770Z,41.60
2023-05-07T08:24:10.227Z,41.23
2023-05-07T08:26:36.615Z,42.25
2023-05-07T08:29:03.035Z,41.92
2023-05-07T08:31:29.499Z,41.95
2023-05-07T08:33:55.833Z,42.17
2023-05-07T08:36:22.238Z,43.00
2023-05-07T08:38:48.653Z,41.40
2023-05-07T08:41:15.011Z,39.05
2023-05-07T08:43:41.441Z,39.03
2023-05-07T08:46:10.096Z,39.48
2023-05-07T08:48:34.227Z,39.82
2023-05-07T08:51:00.591Z,39.88
2023-05-07T08:53:27.004Z,38.09
2023-05-07T08:55:53.403Z,37.46
2023-05-07T08:58:20.034Z,37.00
2023-05-07T09:00:46.500Z,35.68
2023-05-07T09:03:12.926Z,34.94
2023-05-07T09:05:39.249Z,34.75
2023-05-07T09:08:05.664Z,35.03
2023-05-07T09:10:32.107Z,35.85
2023-05-07T09:12:58.512Z,34.71
2023-05-07T09:15:24.853Z,34.42
2023-05-07T09:17:51.376Z,34.46
2023-05-07T09:20:17.709Z,34.04
2023-05-07T09:22:44.088Z,34.23
2023-05-07T09:25:11.098Z,33.48
2023-05-07T09:27:37.392Z,34.12
2023-05-07T09:30:03.801Z,34.51
2023-05-07T09:32:30.205Z,34.04
2023-05-07T09:34:56.630Z,33.60
2023-05-07T09:37:22.985Z,33.74
2023-05-07T09:39:50.555Z,33.09
2023-05-07T09:42:16.936Z,32.33
2023-05-07T09:44:43.308Z,30.47
2023-05-07T09:47:09.796Z,31.19
2023-05-07T09:49:36.202Z,30.98
2023-05-07T09:52:02.618Z,30.81
2023-05-07T09:54:29.034Z,31.13
2023-05-07T09:56:57.928Z,29.65
2023-05-07T09:59:24.370Z,29.72
2023-05-07T10:01:50.738Z,29.50
2023-05-07T10:04:17.435Z,30.15
2023-05-07T10:06:43.846Z,29.73
2023-05-07T10:09:10.225Z,28.06
2023-05-07T10:11:36.675Z,27.71
2023-05-07T10:14:04.932Z,29.34
2023-05-07T10:16:29.569Z,28.66
2023-05-07T10:18:56.031Z,28.13
2023-05-07T10:21:22.398Z,28.03
2023-05-07T10:23:48.805Z,28.07
2023-05-07T10:26:15.205Z,28.73
2023-05-07T10:28:41.582Z,30.84
2023-05-07T10:31:08.071Z,32.82
2023-05-07T10:33:34.373Z,34.07
2023-05-07T10:36:00.899Z,34.93
2023-05-07T10:38:27.350Z,34.57
2023-05-07T10:40:53.757Z,33.54
2023-05-07T10:43:20.175Z,30.86
2023-05-07T10:45:46.831Z,31.04
2023-05-07T10:48:28.884Z,29.50
2023-05-07T10:50:40.721Z,28.46
2023-05-07T10:53:07.360Z,28.96
2023-05-07T10:55:33.798Z,29.29
2023-05-07T10:58:00.168Z,29.29
2023-05-07T11:00:38.875Z,29.57
2023-05-07T11:02:52.977Z,28.82
2023-05-07T11:05:19.350Z,28.69
2023-05-07T11:07:45.755Z,29.74
2023-05-07T11:10:12.184Z,29.13
2023-05-07T11:12:38.745Z,29.04
2023-05-07T11:15:04.998Z,28.92
2023-05-07T11:17:31.425Z,28.17
2023-05-07T11:19:57.789Z,28.26
2023-05-07T11:22:24.197Z,27.69
2023-05-07T11:24:50.596Z,27.85
2023-05-07T11:27:17.014Z,28.13
2023-05-07T11:29:43.425Z,27.40
2023-05-07T11:32:10.268Z,28.10
2023-05-07T11:34:36.522Z,28.18
2023-05-07T11:37:02.888Z,27.96
2023-05-07T11:39:29.300Z,27.34
2023-05-07T11:41:55.686Z,26.29
2023-05-07T11:44:22.267Z,26.86
2023-05-07T11:46:48.699Z,26.05
2023-05-07T11:49:15.094Z,26.29
2023-05-07T11:51:41.523Z,27.13
2023-05-07T11:54:08.106Z,27.08
2023-05-07T11:56:34.533Z,26.73
2023-05-07T11:59:00.892Z,26.43
2023-05-07T12:01:27.322Z,26.33
2023-05-07T12:03:53.870Z,25.86
2023-05-07T12:06:20.214Z,25.64
2023-05-07T12:08:48.195Z,26.46
2023-05-07T12:11:13.234Z,25.91
2023-05-07T12:13:39.617Z,26.80
2023-05-07T12:16:06.868Z,27.01
2023-05-07T12:18:33.223Z,27.40
2023-05-07T12:20:59.602Z,27.51
2023-05-07T12:23:26.044Z,27.22
2023-05-07T12:25:52.512Z,26.37
2023-05-07T12:28:18.835Z,25.97
2023-05-07T12:30:45.329Z,25.84
2023-05-07T12:33:11.673Z,25.92
2023-05-07T12:35:38.101Z,25.52
2023-05-07T12:38:04.538Z,26.34
2023-05-07T12:40:30.928Z,27.31
2023-05-07T12:42:58.531Z,26.79
2023-05-07T12:45:23.772Z,27.00
2023-05-07T12:47:50.219Z,26.95
2023-05-07T12:50:16.641Z,27.88
2023-05-07T12:52:43.016Z,27.88
2023-05-07T12:55:09.693Z,27.78
2023-05-07T12:57:35.849Z,27.39
2023-05-07T13:00:03.356Z,26.58
2023-05-07T13:02:29.829Z,27.41
2023-05-07T13:04:56.144Z,27.60
2023-05-07T13:07:22.532Z,28.33
2023-05-07T13:09:48.961Z,28.50
2023-05-07T13:12:15.563Z,28.66
2023-05-07T13:14:41.937Z,28.38
2023-05-07T13:17:08.488Z,28.90
2023-05-07T13:19:34.903Z,29.26
2023-05-07T13:22:01.287Z,29.67
2023-05-07T13:24:27.661Z,29.42
2023-05-07T13:26:54.035Z,29.73
2023-05-07T13:29:20.681Z,30.69
2023-05-07T13:31:48.393Z,30.10
2023-05-07T13:34:13.531Z,29.86
2023-05-07T13:36:40.218Z,30.14
2023-05-07T13:39:06.651Z,30.44
2023-05-07T13:41:33.080Z,30.58
2023-05-07T13:43:59.447Z,29.72
2023-05-07T13:46:25.962Z,30.07
2023-05-07T13:48:52.310Z,30.56
2023-05-07T13:51:18.694Z,30.78
2023-05-07T13:53:45.200Z,30.81
2023-05-07T13:56:11.644Z,31.07
2023-05-07T13:58:52.115Z,30.82
2023-05-07T14:01:05.618Z,30.75
2023-05-07T14:03:32.087Z,30.39
2023-05-07T14:06:00.541Z,30.78
2023-05-07T14:08:26.946Z,30.71
2023-05-07T14:10:57.282Z,30.93
2023-05-07T14:13:23.745Z,30.69
2023-05-07T14:15:52.433Z,31.29
2023-05-07T14:18:18.818Z,31.04
2023-05-07T14:20:45.532Z,31.26
2023-05-07T14:23:12.214Z,31.08
2023-05-07T14:25:38.871Z,31.18
2023-05-07T14:28:06.025Z,31.41
2023-05-07T14:30:31.914Z,31.82
2023-05-07T14:33:00.594Z,31.00
2023-05-07T14:35:28.043Z,31.02
2023-05-07T14:37:54.519Z,31.22
2023-05-07T14:40:20.925Z,31.28
2023-05-07T14:42:49.740Z,31.33
2023-05-07T14:45:16.146Z,31.41
2023-05-07T14:47:42.629Z,31.55
2023-05-07T14:50:09.086Z,31.63
2023-05-07T14:52:35.505Z,31.70
2023-05-07T14:55:01.913Z,31.40
2023-05-07T14:57:32.662Z,32.01
2023-05-07T14:59:54.800Z,32.19
2023-05-07T15:02:21.560Z,31.61
2023-05-07T15:04:47.622Z,31.70
2023-05-07T15:07:14.000Z,31.82
2023-05-07T15:09:40.600Z,32.02
2023-05-07T15:12:06.933Z,31.89
2023-05-07T15:14:33.377Z,31.96
2023-05-07T15:16:59.771Z,32.21
2023-05-07T15:19:26.140Z,31.88
2023-05-07T15:21:52.608Z,32.13
2023-05-07T15:24:18.956Z,32.13
2023-05-07T15:26:46.518Z,32.15
2023-05-07T15:29:12.930Z,32.81
2023-05-07T15:31:39.367Z,32.54
2023-05-07T15:34:06.090Z,32.46
2023-05-07T15:36:32.501Z,32.52
2023-05-07T15:38:58.870Z,32.28
2023-05-07T15:41:25.281Z,32.08
2023-05-07T15:43:51.703Z,32.43
2023-05-07T15:46:18.407Z,32.90
2023-05-07T15:48:44.618Z,32.83
2023-05-07T15:51:11.000Z,32.89
2023-05-07T15:53:37.378Z,32.64
2023-05-07T15:56:03.792Z,32.48
2023-05-07T15:58:30.287Z,32.18
2023-05-07T16:00:56.698Z,32.26
2023-05-07T16:03:23.161Z,32.74
2023-05-07T16:05:49.436Z,33.29
2023-05-07T16:08:15.872Z,33.63
2023-05-07T16:10:42.291Z,34.17
2023-05-07T16:13:08.744Z,35.12
2023-05-07T16:15:35.087Z,35.82
2023-05-07T16:18:01.560Z,36.35
2023-05-07T16:20:27.912Z,36.53
2023-05-07T16:22:54.325Z,36.98
2023-05-07T16:25:21.770Z,37.21
2023-05-07T16:27:48.382Z,38.36
2023-05-07T16:30:14.801Z,39.16
2023-05-07T16:32:41.220Z,39.97
2023-05-07T16:35:07.591Z,40.42
2023-05-07T16:37:33.984Z,40.93
2023-05-07T16:40:00.390Z,41.40
2023-05-07T16:42:26.820Z,42.02
2023-05-07T16:44:53.241Z,42.31
2023-05-07T16:47:19.603Z,42.37
2023-05-07T16:49:46.017Z,42.61
2023-05-07T16:52:12.452Z,42.71
2023-05-07T16:54:39.273Z,43.52
2023-05-07T16:57:05.660Z,43.48
2023-05-07T16:59:32.033Z,43.49
2023-05-07T17:01:59.203Z,44.03
2023-05-07T17:04:24.874Z,44.22
2023-05-07T17:06:51.328Z,44.56
2023-05-07T17:09:17.738Z,45.06
2023-05-07T17:11:44.095Z,45.24
2023-05-07T17:14:10.541Z,45.27
2023-05-07T17:16:37.146Z,45.50
2023-05-07T17:19:03.444Z,45.76
2023-05-07T17:21:29.859Z,45.95
2023-05-07T17:23:56.275Z,46.46
2023-05-07T17:26:25.083Z,46.58
2023-05-07T17:28:51.454Z,46.84
2023-05-07T17:31:17.882Z,47.06
2023-05-07T17:33:45.297Z,47.33
2023-05-07T17:36:11.701Z,47.83
2023-05-07T17:38:38.157Z,48.18
2023-05-07T17:41:05.803Z,48.60
2023-05-07T17:43:32.247Z,49.27
2023-05-07T17:45:58.647Z,49.72
2023-05-07T17:48:24.983Z,50.33
2023-05-07T17:50:51.688Z,50.61
2023-05-07T17:53:18.051Z,51.09
2023-05-07T17:55:44.433Z,51.50
2023-05-07T17:58:10.851Z,52.06
2023-05-07T18:00:37.370Z,52.34
2023-05-07T18:03:03.818Z,52.75
2023-05-07T18:05:30.292Z,52.75
2023-05-07T18:07:56.536Z,53.15
2023-05-07T18:10:23.007Z,53.16
2023-05-07T18:12:49.463Z,53.97
2023-05-07T18:15:15.785Z,54.49
2023-05-07T18:17:42.204Z,54.75
2023-05-07T18:20:09.940Z,54.97
2023-05-07T18:22:36.205Z,54.92
2023-05-07T18:25:02.588Z,55.24
2023-05-07T18:27:28.999Z,55.34
2023-05-07T18:29:55.488Z,55.71
2023-05-07T18:32:22.288Z,56.20
2023-05-07T18:34:48.460Z,56.31
2023-05-07T18:37:14.848Z,56.83
2023-05-07T18:39:41.238Z,57.20
2023-05-07T18:42:07.626Z,57.63
2023-05-07T18:44:34.458Z,58.34
2023-05-07T18:47:00.884Z,58.74
2023-05-07T18:49:28.559Z,58.81
2023-05-07T18:51:55.023Z,59.23
2023-05-07T18:54:21.506Z,59.31
2023-05-07T18:56:47.888Z,59.69
2023-05-07T18:59:14.292Z,59.60
2023-05-07T19:01:40.790Z,59.68
2023-05-07T19:04:07.138Z,59.98
2023-05-07T19:06:33.809Z,60.08
2023-05-07T19:08:59.915Z,60.58
2023-05-07T19:11:26.745Z,60.60
2023-05-07T19:13:53.139Z,60.55
2023-05-07T19:16:19.600Z,60.58
2023-05-07T19:18:46.191Z,60.72
2023-05-07T19:21:12.550Z,60.84
2023-05-07T19:23:39.166Z,61.21
2023-05-07T19:26:05.501Z,61.37
2023-05-07T19:28:31.904Z,61.40
2023-05-07T19:30:58.341Z,61.92
2023-05-07T19:33:24.863Z,61.88
2023-05-07T19:35:51.286Z,62.17
2023-05-07T19:38:17.784Z,62.17
2023-05-07T19:40:44.177Z,62.34
2023-05-07T19:43:10.627Z,62.31
2023-05-07T19:45:37.033Z,62.70
2023-05-07T19:48:03.579Z,62.79
2023-05-07T19:50:30.037Z,63.12
2023-05-07T19:52:56.494Z,63.44
2023-05-07T19:55:22.904Z,63.65
2023-05-07T19:57:49.330Z,64.23
2023-05-07T20:00:17.258Z,64.50
2023-05-07T20:02:43.727Z,64.78
2023-05-07T20:05:10.091Z,64.87
2023-05-07T20:07:36.432Z,64.94
2023-05-07T20:10:02.870Z,64.74
2023-05-07T20:12:29.354Z,64.67
2023-05-07T20:14:55.684Z,65.10
2023-05-07T20:17:22.167Z,64.93
2023-05-07T20:19:48.596Z,65.07
2023-05-07T20:22:15.026Z,65.48
2023-05-07T20:24:41.376Z,65.71
2023-05-07T20:27:07.766Z,66.08
2023-05-07T20:29:34.148Z,66.22
2023-05-07T20:32:00.547Z,66.83
2023-05-07T20:34:26.931Z,67.03
2023-05-07T20:36:53.302Z,66.87
2023-05-07T20:39:19.719Z,66.97
2023-05-07T20:41:46.103Z,67.16
2023-05-07T20:44:12.512Z,66.95
2023-05-07T20:46:38.939Z,67.06
2023-05-07T20:49:05.346Z,67.28
2023-05-07T20:51:31.993Z,67.28
2023-05-07T20:53:58.366Z,67.43
2023-05-07T20:56:24.841Z,67.37
2023-05-07T20:58:51.261Z,67.48
2023-05-07T21:01:17.847Z,67.34
2023-05-07T21:03:44.181Z,67.52
2023-05-07T21:06:10.627Z,67.54
2023-05-07T21:08:37.032Z,67.64
2023-05-07T21:11:03.490Z,67.71
2023-05-07T21:13:29.926Z,67.38
2023-05-07T21:15:56.426Z,67.67
2023-05-07T21:18:22.957Z,67.36
2023-05-07T21:20:49.379Z,67.47
2023-05-07T21:23:16.009Z,67.49
2023-05-07T21:25:42.507Z,67.65
2023-05-07T21:28:08.983Z,67.53
2023-05-07T21:30:35.344Z,67.63
2023-05-07T21:33:01.753Z,67.68
2023-05-07T21:35:28.145Z,67.69
2023-05-07T21:37:54.562Z,67.23
2023-05-07T21:40:20.932Z,67.16
2023-05-07T21:42:47.663Z,67.42
2023-05-07T21:45:14.130Z,67.12
2023-05-07T21:47:40.556Z,67.50
2023-05-07T21:50:07.001Z,67.54
2023-05-07T21:52:33.360Z,67.51
2023-05-07T21:54:59.815Z,67.50
2023-05-07T21:57:26.228Z,67.54
2023-05-07T21:59:52.600Z,67.90
2023-05-07T22:02:19.034Z,67.65
2023-05-07T22:04:45.541Z,67.81
2023-05-07T22:07:11.935Z,67.86
2023-05-07T22:09:38.330Z,67.75
2023-05-07T22:12:04.772Z,67.94
2023-05-07T22:14:31.311Z,68.17
2023-05-07T22:16:57.736Z,68.10
2023-05-07T22:19:24.297Z,68.27
2023-05-07T22:21:50.731Z,68.25
2023-05-07T22:24:17.228Z,68.02
2023-05-07T22:26:43.644Z,68.16
2023-05-07T22:29:10.035Z,68.23
2023-05-07T22:31:36.494Z,68.13
2023-05-07T22:34:02.865Z,68.13
2023-05-07T22:36:29.262Z,68.19
2023-05-07T22:38:55.748Z,68.36
2023-05-07T22:41:22.112Z,68.42
2023-05-07T22:43:48.540Z,68.33
2023-05-07T22:46:15.048Z,68.45
2023-05-07T22:48:41.429Z,68.44
2023-05-07T22:51:07.820Z,68.53
2023-05-07T22:53:34.264Z,68.34
2023-05-07T22:56:00.882Z,68.64
2023-05-07T22:58:27.259Z,68.49
2023-05-07T23:00:53.680Z,68.75
2023-05-07T23:03:20.156Z,68.77
2023-05-07T23:05:46.464Z,68.66
2023-05-07T23:08:12.907Z,68.95
2023-05-07T23:10:39.313Z,68.85
2023-05-07T23:13:05.796Z,69.08
2023-05-07T23:15:32.087Z,69.20
2023-05-07T23:17:58.521Z,69.69
2023-05-07T23:20:24.929Z,69.82
2023-05-07T23:22:51.345Z,69.80
2023-05-07T23:25:17.714Z,69.98
2023-05-07T23:27:44.100Z,70.15
2023-05-07T23:30:10.685Z,70.01
2023-05-07T23:32:36.932Z,70.04
2023-05-07T23:35:03.330Z,70.11
2023-05-07T23:37:29.727Z,70.13
2023-05-07T23:39:56.064Z,70.08
2023-05-07T23:42:22.512Z,69.91
2023-05-07T23:44:48.897Z,69.95
2023-05-07T23:47:15.265Z,70.18
2023-05-07T23:49:41.696Z,70.14
2023-05-07T23:52:08.076Z,70.07
2023-05-07T23:54:34.433Z,70.47
2023-05-07T23:57:00.954Z,70.58
2023-05-07T23:59:27.319Z,70.49
